Time;durP1;ratioP1;P1;durP2;ratioP2;P2;SDS_P1;SDS_P2;PMS_P1;PMS_P2;Temp;Humidity;BMP_temperature;BMP_pressure;BME280_temperature;BME280_humidity;BME280_pressure;Samples;Min_cycle;Max_cycle;Signal;HPM_P1;HPM_P2
2022/01/05 00:01:55;;;;;;;6.63;5.00;;;22.40;80.00;;;;;;6209145;28;84100;-68
2022/01/05 00:04:57;;;;;;;5.93;4.90;;;22.40;80.00;;;;;;6213584;28;83914;-67
2022/01/05 00:08:00;;;;;;;6.35;5.35;;;22.40;79.90;;;;;;6211332;28;84000;-67
2022/01/05 00:11:02;;;;;;;6.50;5.30;;;22.40;79.80;;;;;;6215370;28;83968;-67
2022/01/05 00:14:04;;;;;;;6.75;5.22;;;22.40;79.90;;;;;;6220805;28;84287;-67
2022/01/05 00:17:06;;;;;;;6.50;5.38;;;22.40;80.00;;;;;;6203119;28;84279;-67
2022/01/05 00:20:10;;;;;;;7.05;5.75;;;22.30;80.00;;;;;;6207724;28;83822;-67
2022/01/05 00:23:14;;;;;;;6.75;5.80;;;22.40;79.90;;;;;;6209248;28;84382;-68
2022/01/05 00:26:16;;;;;;;6.82;5.72;;;22.30;79.90;;;;;;6191338;28;82937;-68
2022/01/05 00:29:19;;;;;;;6.43;5.75;;;22.30;79.90;;;;;;6192878;28;84037;-67
2022/01/05 00:32:21;;;;;;;6.95;5.95;;;22.30;79.90;;;;;;6208558;28;83931;-67
2022/01/05 00:35:23;;;;;;;7.28;5.88;;;22.30;79.90;;;;;;6218733;28;83050;-68
2022/01/05 00:38:27;;;;;;;7.35;6.00;;;22.30;80.00;;;;;;6215788;28;84062;-67
2022/01/05 00:41:29;;;;;;;7.38;6.35;;;22.30;80.00;;;;;;6198484;28;82104;-67
2022/01/05 00:44:31;;;;;;;7.47;6.20;;;22.30;80.00;;;;;;6232960;28;83983;-68
2022/01/05 00:47:33;;;;;;;6.88;6.10;;;22.20;79.90;;;;;;6211373;28;84240;-68
2022/01/05 00:50:35;;;;;;;6.93;5.90;;;22.30;80.00;;;;;;6209509;28;84586;-67
2022/01/05 00:53:39;;;;;;;6.70;6.00;;;22.30;79.90;;;;;;6217449;28;82894;-67
2022/01/05 00:56:41;;;;;;;7.03;6.32;;;22.20;79.80;;;;;;6213378;28;83910;-67
2022/01/05 00:59:43;;;;;;;6.70;5.93;;;22.20;79.80;;;;;;6201704;28;85551;-68
2022/01/05 01:02:45;;;;;;;7.60;6.30;;;22.20;79.80;;;;;;6189019;28;84091;-67
2022/01/05 01:05:47;;;;;;;7.28;6.30;;;22.20;79.80;;;;;;6196830;28;82605;-68
2022/01/05 01:08:50;;;;;;;8.07;6.32;;;22.20;79.80;;;;;;6194000;28;83297;-67
2022/01/05 01:11:53;;;;;;;7.57;6.20;;;22.10;79.70;;;;;;6185326;28;83497;-67
2022/01/05 01:14:55;;;;;;;7.75;6.35;;;22.20;79.80;;;;;;6198024;28;84069;-68
2022/01/05 01:17:57;;;;;;;6.97;6.10;;;22.20;79.70;;;;;;6233647;28;84042;-67
2022/01/05 01:20:59;;;;;;;7.30;6.47;;;22.20;79.60;;;;;;6202458;28;84785;-67
2022/01/05 01:24:02;;;;;;;7.32;6.05;;;22.10;79.60;;;;;;6193214;28;82968;-68
2022/01/05 01:27:05;;;;;;;7.37;6.67;;;22.10;79.70;;;;;;6206691;28;83947;-68
2022/01/05 01:30:09;;;;;;;7.30;6.50;;;22.10;80.10;;;;;;6208977;28;83979;-68
2022/01/05 01:33:11;;;;;;;7.82;6.57;;;22.10;80.00;;;;;;6210249;28;84012;-68
2022/01/05 01:36:13;;;;;;;7.05;6.20;;;22.10;80.00;;;;;;6202615;28;83966;-68
2022/01/05 01:39:17;;;;;;;7.65;6.65;;;22.10;80.00;;;;;;6209111;28;83965;-68
2022/01/05 01:42:19;;;;;;;7.20;6.50;;;22.10;80.00;;;;;;6210570;28;83417;-67
2022/01/05 01:45:21;;;;;;;7.72;6.40;;;22.10;80.10;;;;;;6206482;28;84160;-67
2022/01/05 01:48:23;;;;;;;6.97;6.28;;;22.10;80.00;;;;;;6210414;28;84009;-68
2022/01/05 01:51:25;;;;;;;6.60;5.78;;;22.10;79.90;;;;;;6201482;28;84719;-68
2022/01/05 01:54:28;;;;;;;6.90;6.13;;;22.10;79.90;;;;;;6222900;28;82936;-68
2022/01/05 01:57:35;;;;;;;6.63;5.90;;;22.10;79.90;;;;;;6219188;28;84143;-68
2022/01/05 02:00:37;;;;;;;7.38;6.35;;;22.10;79.90;;;;;;6209802;28;84028;-68
2022/01/05 02:03:39;;;;;;;7.47;6.38;;;22.10;80.70;;;;;;6199345;28;84005;-68
2022/01/05 02:06:41;;;;;;;6.75;5.97;;;22.10;79.90;;;;;;6217664;28;84016;-68
2022/01/05 02:09:44;;;;;;;6.30;5.70;;;22.00;79.80;;;;;;6202516;28;84026;-68
2022/01/05 02:12:47;;;;;;;7.00;6.20;;;22.00;79.80;;;;;;6215130;28;83259;-68
2022/01/05 02:15:49;;;;;;;7.13;6.13;;;22.00;79.90;;;;;;6201394;28;82959;-68
2022/01/05 02:19:00;;;;;;;7.00;6.30;;;22.00;79.80;;;;;;6206831;28;84387;-68
2022/01/05 02:22:03;;;;;;;6.80;6.10;;;22.00;79.90;;;;;;6212599;28;85343;-67
2022/01/05 02:25:06;;;;;;;6.63;5.97;;;22.00;79.90;;;;;;6200116;28;83899;-68
2022/01/05 02:28:08;;;;;;;6.55;5.95;;;22.00;79.80;;;;;;6224499;28;84039;-67
2022/01/05 02:31:10;;;;;;;6.82;5.95;;;22.00;79.90;;;;;;6210761;28;84020;-68
2022/01/05 02:34:15;;;;;;;6.07;5.45;;;22.00;80.00;;;;;;6217569;28;83020;-68
2022/01/05 02:37:19;;;;;;;6.82;6.13;;;22.00;80.00;;;;;;6203063;28;84251;-68
2022/01/05 02:40:24;;;;;;;6.32;5.68;;;21.90;79.90;;;;;;6199847;28;84119;-68
2022/01/05 02:43:26;;;;;;;6.75;6.00;;;22.00;79.90;;;;;;6220445;28;81229;-67
2022/01/05 02:46:31;;;;;;;7.22;5.95;;;22.00;79.80;;;;;;6199431;28;84355;-68
2022/01/05 02:49:33;;;;;;;6.38;5.78;;;22.00;79.90;;;;;;6223152;28;83042;-67
2022/01/05 02:52:36;;;;;;;6.53;5.93;;;22.00;79.80;;;;;;6226532;28;83940;-68
2022/01/05 02:55:39;;;;;;;6.40;5.80;;;22.00;79.80;;;;;;6198422;28;84111;-67
2022/01/05 02:58:41;;;;;;;5.95;5.35;;;22.00;79.80;;;;;;6211790;28;84005;-67
2022/01/05 03:01:43;;;;;;;6.60;5.88;;;21.90;79.70;;;;;;6208395;28;84097;-68
2022/01/05 03:05:04;;;;;;;6.85;5.85;;;21.90;79.80;;;;;;6198626;28;82961;-68
2022/01/05 03:08:07;;;;;;;6.30;5.70;;;21.90;79.80;;;;;;6208078;28;84247;-68
2022/01/05 03:11:09;;;;;;;6.43;5.47;;;21.90;79.70;;;;;;6213818;28;81987;-68
2022/01/05 03:14:11;;;;;;;6.22;5.57;;;21.90;79.80;;;;;;6218685;28;83212;-68
2022/01/05 03:17:13;;;;;;;5.53;4.95;;;21.90;79.80;;;;;;6215148;28;84022;-68
2022/01/05 03:20:17;;;;;;;6.00;5.40;;;21.90;79.80;;;;;;6216029;28;84006;-67
2022/01/05 03:23:21;;;;;;;5.78;5.18;;;21.90;79.80;;;;;;6222224;28;85669;-66
2022/01/05 03:26:23;;;;;;;5.65;5.15;;;21.80;79.80;;;;;;6230691;28;84030;-67
2022/01/05 03:29:25;;;;;;;5.78;5.18;;;21.90;79.90;;;;;;6224259;28;84052;-67
2022/01/05 03:32:34;;;;;;;5.60;5.00;;;21.90;79.80;;;;;;6236154;28;83974;-68
2022/01/05 03:35:39;;;;;;;5.30;4.80;;;21.90;79.80;;;;;;6215966;28;84031;-67
2022/01/05 03:38:43;;;;;;;5.40;4.90;;;21.80;79.80;;;;;;6210525;28;83959;-68
2022/01/05 03:41:45;;;;;;;5.35;4.85;;;21.90;79.70;;;;;;6216201;28;84023;-68
2022/01/05 03:44:47;;;;;;;5.68;5.10;;;21.90;79.60;;;;;;6231974;28;82043;-68
2022/01/05 03:47:49;;;;;;;5.07;4.57;;;21.80;79.60;;;;;;6223668;28;82958;-68
2022/01/05 03:50:52;;;;;;;5.25;4.75;;;21.90;79.60;;;;;;6214328;28;84162;-68
2022/01/05 03:53:55;;;;;;;5.35;4.85;;;21.90;79.60;;;;;;6213121;28;85091;-68
2022/01/05 03:56:57;;;;;;;5.13;4.63;;;21.80;79.50;;;;;;6208612;28;83957;-68
2022/01/05 03:59:59;;;;;;;5.22;4.72;;;21.90;79.60;;;;;;6198501;28;83960;-68
2022/01/05 04:03:02;;;;;;;5.10;4.60;;;21.80;79.60;;;;;;6191685;28;83019;-68
2022/01/05 04:06:05;;;;;;;4.80;4.25;;;21.80;79.60;;;;;;6189867;28;82917;-68
2022/01/05 04:09:10;;;;;;;4.68;4.20;;;21.80;79.60;;;;;;6227113;28;82957;-68
2022/01/05 04:12:12;;;;;;;4.72;4.30;;;21.80;79.60;;;;;;6231782;28;83880;-68
2022/01/05 04:15:14;;;;;;;5.38;4.68;;;21.80;79.60;;;;;;6198706;28;83615;-67
2022/01/05 04:18:16;;;;;;;4.68;4.25;;;21.80;79.60;;;;;;6221881;28;83982;-67
2022/01/05 04:21:20;;;;;;;4.38;3.97;;;21.80;79.50;;;;;;6202711;28;84079;-67
2022/01/05 04:24:24;;;;;;;4.38;3.97;;;21.80;79.50;;;;;;6193914;28;84954;-68
2022/01/05 04:27:26;;;;;;;4.55;4.10;;;21.80;79.50;;;;;;6224547;28;83938;-68
2022/01/05 04:30:28;;;;;;;4.22;3.83;;;21.80;79.50;;;;;;6217028;28;84355;-68
2022/01/05 04:33:30;;;;;;;4.30;3.90;;;21.80;79.50;;;;;;6209991;28;84900;-68
2022/01/05 04:36:32;;;;;;;4.60;4.10;;;21.80;79.50;;;;;;6201210;28;83988;-67
2022/01/05 04:39:37;;;;;;;4.10;3.70;;;21.80;79.50;;;;;;6221563;28;83372;-68
2022/01/05 04:42:39;;;;;;;4.07;3.67;;;21.80;79.50;;;;;;6186217;28;83969;-67
2022/01/05 04:45:41;;;;;;;4.28;3.88;;;21.80;79.40;;;;;;6219105;28;83431;-68
2022/01/05 04:48:43;;;;;;;4.38;3.95;;;21.80;79.40;;;;;;6209222;28;84351;-68
2022/01/05 04:51:45;;;;;;;3.55;3.25;;;21.90;79.40;;;;;;6198864;28;82927;-68
2022/01/05 04:54:48;;;;;;;3.97;3.58;;;21.90;79.30;;;;;;6208212;28;85032;-68
2022/01/05 04:57:50;;;;;;;4.10;3.67;;;21.90;79.20;;;;;;6209635;28;83970;-68
2022/01/05 05:00:52;;;;;;;3.30;3.00;;;21.90;79.10;;;;;;6220840;28;83995;-69
2022/01/05 05:03:54;;;;;;;3.83;3.42;;;22.00;79.20;;;;;;6198178;28;84020;-68
2022/01/05 05:06:56;;;;;;;3.70;3.25;;;22.00;79.10;;;;;;6196980;28;84028;-68
2022/01/05 05:10:00;;;;;;;3.63;3.33;;;22.00;79.10;;;;;;6196407;28;82987;-67
2022/01/05 05:13:08;;;;;;;3.90;3.45;;;22.00;79.00;;;;;;6206332;28;84244;-68
2022/01/05 05:16:10;;;;;;;3.35;3.05;;;22.00;78.90;;;;;;6214892;28;83235;-68
2022/01/05 05:19:12;;;;;;;3.40;3.10;;;22.10;79.00;;;;;;6209521;28;84331;-68
2022/01/05 05:22:14;;;;;;;3.50;3.20;;;22.00;78.90;;;;;;6224023;28;83958;-68
2022/01/05 05:25:17;;;;;;;3.20;2.90;;;22.10;78.90;;;;;;6218518;28;84907;-68
2022/01/05 05:28:19;;;;;;;3.20;2.90;;;22.10;78.80;;;;;;6210223;28;84470;-68
2022/01/05 05:31:22;;;;;;;2.90;2.60;;;22.10;78.80;;;;;;6219890;28;85385;-68
2022/01/05 05:34:25;;;;;;;3.55;3.03;;;22.10;78.80;;;;;;6207440;28;84050;-67
2022/01/05 05:37:27;;;;;;;3.55;3.00;;;22.10;78.80;;;;;;6208810;28;84039;-68
2022/01/05 05:40:30;;;;;;;3.30;2.80;;;22.10;78.80;;;;;;6216288;28;84007;-67
2022/01/05 05:43:32;;;;;;;3.28;2.97;;;22.10;78.90;;;;;;6206340;28;83959;-68
2022/01/05 05:46:35;;;;;;;2.97;2.67;;;22.00;78.80;;;;;;6215008;28;83320;-68
2022/01/05 05:49:37;;;;;;;3.22;2.80;;;22.10;78.90;;;;;;6206685;28;84262;-68
2022/01/05 05:52:39;;;;;;;2.70;2.50;;;22.00;78.70;;;;;;6220825;28;84160;-68
2022/01/05 05:55:42;;;;;;;3.30;2.50;;;22.00;78.70;;;;;;6210959;28;85227;-68
2022/01/05 05:58:44;;;;;;;2.70;2.50;;;22.00;79.60;;;;;;6236605;28;83980;-68
2022/01/05 06:01:46;;;;;;;2.85;2.65;;;22.10;78.80;;;;;;6213980;28;82951;-68
2022/01/05 06:04:48;;;;;;;3.05;2.72;;;22.10;78.80;;;;;;6191380;28;84374;-68
2022/01/05 06:07:50;;;;;;;2.95;2.65;;;22.00;78.60;;;;;;6187432;28;83811;-68
2022/01/05 06:10:54;;;;;;;2.65;2.45;;;22.10;78.80;;;;;;6213584;28;84003;-68
2022/01/05 06:13:56;;;;;;;2.85;2.58;;;22.10;78.70;;;;;;6206028;28;84094;-67
2022/01/05 06:16:58;;;;;;;2.72;2.42;;;22.00;78.60;;;;;;6215991;28;83286;-68
2022/01/05 06:20:00;;;;;;;3.00;2.70;;;22.00;78.70;;;;;;6222834;28;83979;-68
2022/01/05 06:23:02;;;;;;;3.10;2.80;;;22.00;78.60;;;;;;6204385;28;84100;-68
2022/01/05 06:26:06;;;;;;;2.90;2.60;;;22.10;78.60;;;;;;6219582;28;84013;-68
2022/01/05 06:29:09;;;;;;;2.80;2.60;;;22.10;78.60;;;;;;6206856;28;83904;-67
2022/01/05 06:32:11;;;;;;;3.05;2.75;;;22.10;78.50;;;;;;6210138;28;84106;-68
2022/01/05 06:35:13;;;;;;;3.20;2.90;;;22.10;78.40;;;;;;6206329;28;84020;-68
2022/01/05 06:38:15;;;;;;;3.28;2.97;;;22.20;78.30;;;;;;6223035;28;84072;-68
2022/01/05 06:41:19;;;;;;;3.70;3.08;;;22.20;78.30;;;;;;6200468;28;83997;-68
2022/01/05 06:44:21;;;;;;;3.45;3.15;;;22.20;78.30;;;;;;6189842;28;84125;-68
2022/01/05 06:47:23;;;;;;;3.20;2.90;;;22.20;78.30;;;;;;6221350;28;82112;-68
2022/01/05 06:50:26;;;;;;;3.00;2.70;;;22.20;78.20;;;;;;6220350;28;82920;-68
2022/01/05 06:53:28;;;;;;;2.97;2.70;;;22.20;78.20;;;;;;6217065;28;84053;-68
2022/01/05 06:56:32;;;;;;;2.78;2.42;;;22.30;78.10;;;;;;6210576;28;85563;-68
2022/01/05 06:59:35;;;;;;;3.20;2.90;;;22.30;78.10;;;;;;6221889;28;82663;-68
2022/01/05 07:02:37;;;;;;;3.13;2.83;;;22.30;78.10;;;;;;6229039;28;84123;-67
2022/01/05 07:05:39;;;;;;;3.40;3.10;;;22.30;78.00;;;;;;6194456;28;84124;-68
2022/01/05 07:08:41;;;;;;;3.28;2.97;;;22.20;77.90;;;;;;6234081;28;84062;-68
2022/01/05 07:11:45;;;;;;;3.05;2.75;;;22.30;77.90;;;;;;6197115;28;82798;-68
2022/01/05 07:14:47;;;;;;;2.97;2.78;;;22.30;77.90;;;;;;6200128;28;84032;-68
2022/01/05 07:17:49;;;;;;;3.20;2.90;;;22.30;77.90;;;;;;6198103;28;83341;-67
2022/01/05 07:20:51;;;;;;;3.20;2.90;;;22.30;77.80;;;;;;6196759;28;84143;-68
2022/01/05 07:23:53;;;;;;;3.10;2.80;;;22.30;77.70;;;;;;6195188;28;85674;-69
2022/01/05 07:26:57;;;;;;;3.05;2.75;;;22.40;77.70;;;;;;6192733;28;85155;-68
2022/01/05 07:29:59;;;;;;;2.78;2.58;;;22.40;77.70;;;;;;6192524;28;84028;-69
2022/01/05 07:33:01;;;;;;;3.30;3.00;;;22.40;77.60;;;;;;6195176;28;84532;-70
2022/01/05 07:36:03;;;;;;;2.88;2.67;;;22.40;77.60;;;;;;6196961;28;84044;-68
2022/01/05 07:39:06;;;;;;;2.85;2.65;;;22.40;77.50;;;;;;6191174;28;85656;-71
2022/01/05 07:42:10;;;;;;;2.75;2.55;;;22.40;77.50;;;;;;6197745;28;84471;-70
2022/01/05 07:45:12;;;;;;;2.80;2.60;;;22.40;77.40;;;;;;6191827;28;82936;-69
2022/01/05 07:48:14;;;;;;;2.80;2.60;;;22.50;77.50;;;;;;6196745;28;83252;-70
2022/01/05 07:51:16;;;;;;;3.10;2.80;;;22.40;77.40;;;;;;6197333;28;84097;-69
2022/01/05 07:54:19;;;;;;;2.80;2.60;;;22.50;77.40;;;;;;6196147;28;83983;-69
2022/01/05 07:57:22;;;;;;;3.08;2.78;;;22.50;77.40;;;;;;6193746;28;85105;-70
2022/01/05 08:00:24;;;;;;;2.92;2.72;;;22.50;77.40;;;;;;6197084;28;83162;-69
2022/01/05 08:03:26;;;;;;;2.70;2.50;;;22.50;77.30;;;;;;6197587;28;85963;-68
2022/01/05 08:06:28;;;;;;;2.60;2.38;;;22.50;76.60;;;;;;6193178;28;84025;-68
2022/01/05 08:09:31;;;;;;;2.60;2.40;;;22.50;76.90;;;;;;6186793;28;84241;-68
2022/01/05 08:12:34;;;;;;;2.42;2.22;;;22.60;77.20;;;;;;6199081;28;83893;-68
2022/01/05 08:15:36;;;;;;;2.45;2.25;;;22.60;77.20;;;;;;6190972;28;84052;-67
2022/01/05 08:18:38;;;;;;;2.38;2.17;;;22.60;77.10;;;;;;6198708;28;83338;-68
2022/01/05 08:21:40;;;;;;;3.05;2.30;;;22.60;77.00;;;;;;6209423;28;84382;-67
2022/01/05 08:24:42;;;;;;;2.78;2.40;;;22.60;76.90;;;;;;6207793;28;84075;-67
2022/01/05 08:27:49;;;;;;;2.63;2.42;;;22.60;76.90;;;;;;6220651;28;84633;-67
2022/01/05 08:30:51;;;;;;;2.60;2.40;;;22.60;76.90;;;;;;6197349;28;82775;-67
2022/01/05 08:33:56;;;;;;;2.45;2.25;;;22.60;76.90;;;;;;6186371;28;83239;-67
2022/01/05 08:36:58;;;;;;;2.35;2.15;;;22.60;76.70;;;;;;6231131;28;85731;-67
2022/01/05 08:40:01;;;;;;;2.58;2.38;;;22.60;76.80;;;;;;6234417;28;84267;-68
2022/01/05 08:43:05;;;;;;;3.17;2.10;;;22.70;76.90;;;;;;6214363;28;82924;-67
2022/01/05 08:46:08;;;;;;;2.40;2.20;;;22.70;76.90;;;;;;6209033;28;84067;-67
2022/01/05 08:49:10;;;;;;;2.83;2.30;;;22.70;76.90;;;;;;6206666;28;83262;-67
2022/01/05 08:52:12;;;;;;;2.33;2.10;;;22.70;76.90;;;;;;6195195;28;84127;-67
2022/01/05 08:55:17;;;;;;;2.35;2.15;;;22.70;76.90;;;;;;6199782;28;84036;-66
2022/01/05 08:58:21;;;;;;;3.25;2.33;;;22.70;76.90;;;;;;6229161;28;84234;-67
2022/01/05 09:01:24;;;;;;;2.80;2.20;;;22.70;76.90;;;;;;6198075;28;83965;-66
2022/01/05 09:04:26;;;;;;;2.75;2.30;;;22.70;76.90;;;;;;6232148;28;84023;-67
2022/01/05 09:07:28;;;;;;;2.35;2.15;;;22.70;76.90;;;;;;6202948;28;84140;-67
2022/01/05 09:10:31;;;;;;;2.22;1.90;;;22.70;76.90;;;;;;6213105;28;84356;-66
2022/01/05 09:13:34;;;;;;;3.13;2.50;;;22.70;76.90;;;;;;6203212;28;84090;-67
2022/01/05 09:16:36;;;;;;;2.58;2.15;;;22.70;76.90;;;;;;6207968;28;83807;-66
2022/01/05 09:19:39;;;;;;;2.28;2.00;;;22.70;76.90;;;;;;6202143;28;83828;-66
2022/01/05 09:22:41;;;;;;;2.28;2.08;;;22.70;76.90;;;;;;6205227;28;84058;-67
2022/01/05 09:25:43;;;;;;;2.10;1.90;;;22.70;76.80;;;;;;6211750;28;82899;-67
2022/01/05 09:28:46;;;;;;;2.22;1.95;;;22.70;76.80;;;;;;6224561;28;85463;-66
2022/01/05 09:31:48;;;;;;;2.60;1.85;;;22.70;76.70;;;;;;6189633;28;84017;-67
2022/01/05 09:34:51;;;;;;;3.72;2.00;;;22.70;76.70;;;;;;6226473;28;84080;-66
2022/01/05 09:38:08;;;;;;;2.10;1.90;;;22.70;76.70;;;;;;6204500;28;84145;-67
2022/01/05 09:44:34;;;;;;;2.53;1.83;;;22.70;76.70;;;;;;6213616;28;82885;-67
2022/01/05 09:48:02;;;;;;;2.20;2.00;;;22.70;76.60;;;;;;6198690;28;84930;-67
2022/01/05 09:51:09;;;;;;;2.30;2.10;;;22.70;76.60;;;;;;6217140;28;83483;-66
2022/01/05 09:54:31;;;;;;;2.10;1.90;;;22.80;76.60;;;;;;6217069;28;83027;-67
2022/01/05 09:57:34;;;;;;;2.10;1.90;;;22.70;76.60;;;;;;6200169;28;83971;-67
2022/01/05 10:00:37;;;;;;;2.28;1.80;;;22.80;76.60;;;;;;6214906;28;84708;-66
2022/01/05 10:03:39;;;;;;;1.70;1.60;;;22.70;76.60;;;;;;6213630;28;83948;-66
2022/01/05 10:06:41;;;;;;;2.30;1.70;;;22.80;76.60;;;;;;6210729;28;83456;-67
2022/01/05 10:09:45;;;;;;;2.10;1.90;;;22.80;76.60;;;;;;6219881;28;84103;-67
2022/01/05 10:12:47;;;;;;;2.33;1.90;;;22.70;76.60;;;;;;6203559;28;82977;-66
2022/01/05 10:15:51;;;;;;;1.92;1.70;;;22.80;76.70;;;;;;6217267;28;84056;-67
2022/01/05 10:18:54;;;;;;;2.05;1.85;;;22.70;76.50;;;;;;6220427;28;82949;-67
2022/01/05 10:21:57;;;;;;;2.42;1.90;;;22.80;76.60;;;;;;6225539;28;83301;-66
2022/01/05 10:25:00;;;;;;;2.17;1.98;;;22.80;76.50;;;;;;6188669;28;84207;-67
2022/01/05 10:28:04;;;;;;;1.90;1.80;;;22.80;76.50;;;;;;6225653;28;83780;-66
2022/01/05 10:34:35;;;;;;;1.90;1.75;;;22.80;76.40;;;;;;6223817;28;81926;-67
2022/01/05 10:37:39;;;;;;;1.60;1.50;;;22.80;76.40;;;;;;6224118;28;84065;-67
2022/01/05 10:40:42;;;;;;;1.67;1.58;;;22.80;76.50;;;;;;6223158;28;83192;-67
2022/01/05 10:44:08;;;;;;;1.80;1.50;;;22.80;76.40;;;;;;6208004;28;84006;-67
2022/01/05 10:47:17;;;;;;;2.45;1.60;;;22.80;76.40;;;;;;6232072;28;84135;-67
2022/01/05 10:50:20;;;;;;;1.80;1.70;;;22.80;76.30;;;;;;6216672;28;82923;-66
2022/01/05 10:53:23;;;;;;;1.60;1.50;;;22.90;76.40;;;;;;6205503;28;83325;-67
2022/01/05 10:56:27;;;;;;;1.80;1.70;;;22.80;76.40;;;;;;6197048;28;84166;-67
2022/01/05 10:59:37;;;;;;;1.90;1.80;;;22.90;76.40;;;;;;6198913;28;84113;-67
2022/01/05 11:02:41;;;;;;;2.20;2.00;;;22.80;76.30;;;;;;6205241;28;85477;-67
2022/01/05 11:05:43;;;;;;;1.98;1.80;;;22.80;76.30;;;;;;6214964;28;84073;-67
2022/01/05 11:08:51;;;;;;;1.65;1.55;;;22.90;76.40;;;;;;6224391;28;84293;-67
2022/01/05 11:11:54;;;;;;;1.70;1.60;;;22.90;76.30;;;;;;6224632;28;82868;-67
2022/01/05 11:14:56;;;;;;;1.80;1.70;;;22.90;76.30;;;;;;6211741;28;84058;-67
2022/01/05 11:18:19;;;;;;;1.67;1.58;;;22.80;76.20;;;;;;6213735;28;84038;-67
2022/01/05 11:21:21;;;;;;;1.80;1.55;;;22.80;76.20;;;;;;6202816;28;84036;-66
2022/01/05 11:24:25;;;;;;;1.50;1.40;;;22.90;77.20;;;;;;6192947;28;83403;-67
2022/01/05 11:27:28;;;;;;;1.70;1.58;;;22.90;76.20;;;;;;6194526;28;82884;-66
2022/01/05 11:30:30;;;;;;;1.65;1.55;;;22.90;76.20;;;;;;6196676;28;84170;-67
2022/01/05 11:33:34;;;;;;;1.60;1.50;;;22.90;76.20;;;;;;6197979;28;85092;-66
2022/01/05 11:36:36;;;;;;;1.42;1.33;;;22.90;76.20;;;;;;6207980;28;84122;-66
2022/01/05 11:39:43;;;;;;;1.60;1.50;;;22.90;76.20;;;;;;6196227;28;83975;-67
2022/01/05 11:42:48;;;;;;;1.80;1.70;;;22.90;76.20;;;;;;6201106;28;84181;-66
2022/01/05 11:45:50;;;;;;;1.50;1.40;;;22.90;76.20;;;;;;6210782;28;84069;-67
2022/01/05 11:49:06;;;;;;;1.48;1.38;;;22.90;76.20;;;;;;6231658;28;84330;-67
2022/01/05 11:52:08;;;;;;;1.80;1.70;;;22.90;76.10;;;;;;6228066;28;83618;-67
2022/01/05 11:55:11;;;;;;;1.30;1.20;;;22.80;76.00;;;;;;6221198;28;83368;-66
2022/01/05 11:58:17;;;;;;;1.40;1.30;;;22.90;76.10;;;;;;6235577;28;84248;-67
2022/01/05 12:01:33;;;;;;;1.50;1.40;;;22.90;76.00;;;;;;6219500;28;84077;-67
2022/01/05 12:05:01;;;;;;;1.40;1.30;;;22.90;76.00;;;;;;6184145;28;85337;-67
2022/01/05 12:08:03;;;;;;;1.40;1.30;;;22.90;76.00;;;;;;6207064;28;83900;-67
2022/01/05 12:11:05;;;;;;;1.50;1.40;;;22.90;76.00;;;;;;6234014;28;84090;-67
2022/01/05 12:14:28;;;;;;;1.40;1.30;;;22.90;76.00;;;;;;6221265;28;84269;-66
2022/01/05 12:17:32;;;;;;;1.40;1.30;;;22.90;76.00;;;;;;6217004;28;84999;-67
2022/01/05 12:20:37;;;;;;;1.60;1.50;;;22.90;76.00;;;;;;6211381;28;83979;-66
2022/01/05 12:23:51;;;;;;;1.55;1.40;;;23.00;76.00;;;;;;6220925;28;84017;-66
2022/01/05 12:27:17;;;;;;;1.60;1.50;;;23.00;75.90;;;;;;6195936;28;81333;-67
2022/01/05 12:30:37;;;;;;;1.60;1.50;;;22.90;75.80;;;;;;6184578;28;84395;-67
2022/01/05 12:33:43;;;;;;;1.35;1.25;;;22.90;75.80;;;;;;6185347;28;84135;-66
2022/01/05 12:36:47;;;;;;;1.50;1.40;;;22.90;75.70;;;;;;6190499;28;85175;-67
2022/01/05 12:39:53;;;;;;;2.00;1.30;;;22.90;75.70;;;;;;6219961;28;84016;-67
2022/01/05 12:43:34;;;;;;;1.60;1.50;;;22.90;75.70;;;;;;6221243;28;84033;-67
2022/01/05 12:46:39;;;;;;;1.50;1.40;;;22.90;75.70;;;;;;6195027;28;82918;-66
2022/01/05 12:49:42;;;;;;;1.80;1.30;;;23.00;75.70;;;;;;6196030;28;82999;-66
2022/01/05 12:52:45;;;;;;;1.40;1.30;;;23.00;75.70;;;;;;6209699;28;84101;-67
2022/01/05 12:55:50;;;;;;;1.77;1.45;;;23.00;75.70;;;;;;6209813;28;83155;-66
2022/01/05 12:58:53;;;;;;;1.50;1.30;;;22.90;75.60;;;;;;6209764;28;83365;-67
2022/01/05 13:01:57;;;;;;;1.45;1.35;;;23.00;75.60;;;;;;6222638;28;82936;-66
2022/01/05 13:05:02;;;;;;;1.45;1.33;;;22.90;75.50;;;;;;6212106;28;84118;-67
2022/01/05 13:08:10;;;;;;;1.30;1.20;;;22.90;75.50;;;;;;6232355;28;85011;-67
2022/01/05 13:11:12;;;;;;;1.20;1.10;;;23.00;75.50;;;;;;6201711;28;84112;-67
2022/01/05 13:14:18;;;;;;;1.40;1.30;;;22.90;75.40;;;;;;6199525;28;84072;-67
2022/01/05 13:17:22;;;;;;;1.35;1.25;;;23.00;75.40;;;;;;6218002;28;84066;-66
2022/01/05 13:20:24;;;;;;;1.27;1.17;;;23.00;75.40;;;;;;6202522;28;84070;-66
2022/01/05 13:23:28;;;;;;;1.20;1.10;;;23.00;75.30;;;;;;6184324;28;84166;-66
2022/01/05 13:29:50;;;;;;;1.10;1.02;;;23.00;75.20;;;;;;6195049;28;81642;-67
2022/01/05 13:32:59;;;;;;;1.25;1.15;;;23.00;75.20;;;;;;6205009;28;83057;-67
2022/01/05 13:36:01;;;;;;;1.23;1.00;;;23.00;75.20;;;;;;6209652;28;84076;-67
2022/01/05 13:39:05;;;;;;;1.13;1.02;;;23.00;75.10;;;;;;6207344;28;83897;-67
2022/01/05 13:42:08;;;;;;;1.10;1.00;;;23.00;75.10;;;;;;6207337;28;83986;-66
2022/01/05 13:45:14;;;;;;;1.42;1.20;;;23.00;75.00;;;;;;6220444;28;83129;-67
2022/01/05 13:48:21;;;;;;;1.30;1.20;;;23.00;75.00;;;;;;6227890;28;84196;-67
2022/01/05 13:51:27;;;;;;;1.20;1.10;;;23.00;75.00;;;;;;6218150;28;84046;-67
2022/01/05 13:54:31;;;;;;;1.20;1.10;;;23.00;75.00;;;;;;6204008;28;84063;-67
2022/01/05 13:57:35;;;;;;;1.08;1.00;;;23.00;75.00;;;;;;6218996;28;84092;-67
2022/01/05 14:00:39;;;;;;;1.33;1.10;;;23.00;75.00;;;;;;6215546;28;83470;-67
2022/01/05 14:03:44;;;;;;;1.55;1.00;;;23.00;74.90;;;;;;6191325;28;83895;-67
2022/01/05 14:06:46;;;;;;;1.35;1.20;;;23.00;74.70;;;;;;6205804;28;84031;-67
2022/01/05 14:10:12;;;;;;;1.85;1.20;;;23.00;74.90;;;;;;6222256;28;85090;-67
2022/01/05 14:13:14;;;;;;;1.35;1.23;;;23.00;74.90;;;;;;6203622;28;84117;-68
2022/01/05 14:16:30;;;;;;;2.05;1.17;;;23.00;75.00;;;;;;6194638;28;84159;-69
2022/01/05 14:19:34;;;;;;;1.83;1.48;;;23.00;74.90;;;;;;6192955;28;84139;-68
2022/01/05 14:22:36;;;;;;;1.92;1.25;;;23.00;75.00;;;;;;6197143;28;84159;-67
2022/01/05 14:25:44;;;;;;;1.40;1.10;;;23.00;75.00;;;;;;6194934;28;84172;-68
2022/01/05 14:28:46;;;;;;;1.65;1.10;;;23.00;75.00;;;;;;6217835;28;84914;-67
2022/01/05 14:31:48;;;;;;;1.10;1.00;;;23.10;75.10;;;;;;6203057;28;83289;-67
2022/01/05 14:34:53;;;;;;;2.80;1.10;;;23.00;75.10;;;;;;6210402;28;84001;-67
2022/01/05 14:37:57;;;;;;;1.77;1.30;;;23.00;75.00;;;;;;6201559;28;82897;-67
2022/01/05 14:41:12;;;;;;;2.65;1.40;;;23.10;75.00;;;;;;6201707;28;83882;-67
2022/01/05 14:44:17;;;;;;;1.95;1.30;;;23.10;75.30;;;;;;6194254;28;83979;-67
2022/01/05 14:47:23;;;;;;;1.33;1.23;;;23.10;75.40;;;;;;6209797;28;82968;-67
2022/01/05 14:50:25;;;;;;;2.17;1.10;;;23.10;75.30;;;;;;6189276;28;83988;-67
2022/01/05 14:53:31;;;;;;;2.65;1.10;;;23.10;75.30;;;;;;6220558;28;84325;-67
2022/01/05 14:56:36;;;;;;;1.40;1.30;;;23.10;75.20;;;;;;6214288;28;84126;-67
2022/01/05 14:59:39;;;;;;;1.13;1.02;;;23.10;75.20;;;;;;6198138;28;84301;-67
2022/01/05 15:02:41;;;;;;;2.25;1.23;;;23.10;75.20;;;;;;6214923;28;83331;-66
2022/01/05 15:05:43;;;;;;;2.00;1.20;;;23.10;75.00;;;;;;6210692;28;84075;-67
2022/01/05 15:08:45;;;;;;;1.30;1.20;;;23.10;75.00;;;;;;6188109;28;84065;-67
2022/01/05 15:11:49;;;;;;;1.45;1.10;;;23.10;75.00;;;;;;6188612;28;85279;-67
2022/01/05 15:14:51;;;;;;;2.03;1.20;;;23.10;74.90;;;;;;6227783;28;83924;-67
2022/01/05 15:17:53;;;;;;;1.60;1.40;;;23.10;74.90;;;;;;6220241;28;84298;-67
2022/01/05 15:20:56;;;;;;;1.10;1.00;;;23.10;74.80;;;;;;6222450;28;84123;-67
2022/01/05 15:23:58;;;;;;;1.45;1.35;;;23.10;74.80;;;;;;6208646;28;84221;-67
2022/01/05 15:27:02;;;;;;;1.30;1.17;;;23.20;74.90;;;;;;6207187;28;84118;-67
2022/01/05 15:30:05;;;;;;;1.83;1.20;;;23.10;74.90;;;;;;6225462;28;84615;-67
2022/01/05 15:33:07;;;;;;;1.35;1.10;;;23.10;74.90;;;;;;6202749;28;83337;-67
2022/01/05 15:36:10;;;;;;;1.45;1.10;;;23.10;74.90;;;;;;6187606;28;84395;-67
2022/01/05 15:39:12;;;;;;;1.40;1.25;;;23.10;74.90;;;;;;6191370;28;84125;-68
2022/01/05 15:42:16;;;;;;;1.88;1.20;;;23.10;75.00;;;;;;6191159;28;85263;-67
2022/01/05 15:45:19;;;;;;;2.15;1.15;;;23.10;74.90;;;;;;6187779;28;84036;-67
2022/01/05 15:48:21;;;;;;;1.65;1.35;;;23.20;74.90;;;;;;6183800;28;83936;-67
2022/01/05 15:51:23;;;;;;;1.90;1.27;;;23.20;75.00;;;;;;6196193;28;84319;-67
2022/01/05 15:54:26;;;;;;;2.15;1.15;;;23.20;75.00;;;;;;6192713;28;84116;-67
2022/01/05 15:57:47;;;;;;;2.28;1.27;;;23.10;75.00;;;;;;6195617;28;84063;-67
2022/01/05 16:01:19;;;;;;;1.60;1.20;;;23.20;75.10;;;;;;6189527;28;83344;-67
2022/01/05 16:04:21;;;;;;;2.08;1.40;;;23.20;75.20;;;;;;6203306;28;82527;-67
2022/01/05 16:07:23;;;;;;;1.88;1.30;;;23.20;75.20;;;;;;6202118;28;83014;-66
2022/01/05 16:10:26;;;;;;;1.77;1.30;;;23.20;75.20;;;;;;6196964;28;84014;-66